createdAt,value
2023-05-02T00:00:32.248Z,39.19
2023-05-02T00:01:34.850Z,39.41
2023-05-02T00:02:36.820Z,39.25
2023-05-02T00:03:38.933Z,39.29
2023-05-02T00:04:40.962Z,39.38
2023-05-02T00:05:43.426Z,39.39
2023-05-02T00:06:46.605Z,39.37
2023-05-02T00:07:48.822Z,39.24
2023-05-02T00:08:50.759Z,39.49
2023-05-02T00:09:52.713Z,39.30
2023-05-02T00:10:54.664Z,39.66
2023-05-02T00:11:56.830Z,39.76
2023-05-02T00:12:58.714Z,39.60
2023-05-02T00:14:00.601Z,39.57
2023-05-02T00:15:02.555Z,39.58
2023-05-02T00:16:05.357Z,39.64
2023-05-02T00:17:07.564Z,39.53
2023-05-02T00:18:10.247Z,39.36
2023-05-02T00:19:12.580Z,39.39
2023-05-02T00:20:14.447Z,39.35
2023-05-02T00:21:16.348Z,39.44
2023-05-02T00:22:18.610Z,39.32
2023-05-02T00:23:20.482Z,39.48
2023-05-02T00:24:22.331Z,39.13
2023-05-02T00:25:24.215Z,39.14
2023-05-02T00:26:27.163Z,39.19
2023-05-02T00:27:30.291Z,39.17
2023-05-02T00:28:33.418Z,39.34
2023-05-02T00:29:35.537Z,39.38
2023-05-02T00:30:42.081Z,39.74
2023-05-02T00:31:44.435Z,39.79
2023-05-02T00:32:46.762Z,40.02
2023-05-02T00:33:48.690Z,40.14
2023-05-02T00:34:50.774Z,39.73
2023-05-02T00:35:52.860Z,39.83
2023-05-02T00:36:54.666Z,39.88
2023-05-02T00:37:57.058Z,39.88
2023-05-02T00:38:59.193Z,40.13
2023-05-02T00:40:01.549Z,40.18
2023-05-02T00:41:05.468Z,40.22
2023-05-02T00:42:07.712Z,40.86
2023-05-02T00:43:09.885Z,40.75
2023-05-02T00:44:11.752Z,40.77
2023-05-02T00:45:13.822Z,40.64
2023-05-02T00:46:15.863Z,40.54
2023-05-02T00:47:17.846Z,40.84
2023-05-02T00:48:21.807Z,40.98
2023-05-02T00:49:23.837Z,40.96
2023-05-02T00:50:27.468Z,41.17
2023-05-02T00:51:29.768Z,41.08
2023-05-02T00:52:32.961Z,40.97
2023-05-02T00:53:36.171Z,41.22
2023-05-02T00:54:41.620Z,41.48
2023-05-02T00:55:43.944Z,41.54
2023-05-02T00:56:46.513Z,41.49
2023-05-02T00:57:48.550Z,41.78
2023-05-02T00:58:50.799Z,41.75
2023-05-02T00:59:52.862Z,41.36
2023-05-02T01:01:10.713Z,41.58
2023-05-02T01:02:48.092Z,41.64
2023-05-02T01:04:21.878Z,42.06
2023-05-02T01:05:35.766Z,41.96
2023-05-02T01:06:56.195Z,41.99
2023-05-02T01:08:22.885Z,41.98
2023-05-02T01:09:37.098Z,42.20
2023-05-02T01:11:12.884Z,42.59
2023-05-02T01:12:33.148Z,43.04
2023-05-02T01:13:37.893Z,42.94
2023-05-02T01:14:45.777Z,43.15
2023-05-02T01:15:49.226Z,43.05
2023-05-02T01:16:52.864Z,43.15
2023-05-02T01:17:56.723Z,43.22
2023-05-02T01:18:59.739Z,43.38
2023-05-02T01:20:13.849Z,43.72
2023-05-02T01:21:15.903Z,43.53
2023-05-02T01:22:20.167Z,43.53
2023-05-02T01:23:41.109Z,43.90
2023-05-02T01:24:54.801Z,43.85
2023-05-02T01:26:32.910Z,43.97
2023-05-02T01:27:47.835Z,44.01
2023-05-02T01:29:00.974Z,44.14
2023-05-02T01:30:04.513Z,44.13
2023-05-02T01:31:08.004Z,44.14
2023-05-02T01:32:13.662Z,44.64
2023-05-02T01:33:17.699Z,44.83
2023-05-02T01:34:21.476Z,44.59
2023-05-02T01:35:24.473Z,44.59
2023-05-02T01:36:30.412Z,44.67
2023-05-02T01:37:34.023Z,44.75
2023-05-02T01:38:38.358Z,44.91
2023-05-02T01:39:42.570Z,44.87
2023-05-02T01:40:50.293Z,45.18
2023-05-02T01:41:56.027Z,45.18
2023-05-02T01:42:59.622Z,45.08
2023-05-02T01:44:03.224Z,44.93
2023-05-02T01:45:08.153Z,45.23
2023-05-02T01:46:11.402Z,45.35
2023-05-02T01:47:15.242Z,45.39
2023-05-02T01:48:19.365Z,45.75
2023-05-02T01:49:23.477Z,46.06
2023-05-02T01:50:26.840Z,45.89
2023-05-02T01:51:32.854Z,45.99
2023-05-02T01:52:37.269Z,46.11
2023-05-02T01:53:40.757Z,45.97
2023-05-02T01:54:43.835Z,46.10
2023-05-02T01:55:46.973Z,46.18
2023-05-02T01:56:50.151Z,46.54
2023-05-02T01:57:54.949Z,46.30
2023-05-02T01:58:58.029Z,46.50
2023-05-02T02:00:01.874Z,46.63
2023-05-02T02:01:15.593Z,46.57
2023-05-02T02:02:18.918Z,46.70
2023-05-02T02:03:22.807Z,46.59
2023-05-02T02:04:29.585Z,46.85
2023-05-02T02:05:32.471Z,47.03
2023-05-02T02:06:34.982Z,46.92
2023-05-02T02:07:37.430Z,47.07
2023-05-02T02:08:39.368Z,47.60
2023-05-02T02:09:41.949Z,47.10
2023-05-02T02:10:49.916Z,47.52
2023-05-02T02:12:06.181Z,47.62
2023-05-02T02:13:17.842Z,47.60
2023-05-02T02:14:22.442Z,47.74
2023-05-02T02:15:34.034Z,47.89
2023-05-02T02:16:38.224Z,48.24
2023-05-02T02:17:43.854Z,48.13
2023-05-02T02:18:46.618Z,48.49
2023-05-02T02:19:53.320Z,48.68
2023-05-02T02:20:56.077Z,48.56
2023-05-02T02:22:00.473Z,48.40
2023-05-02T02:23:06.928Z,48.24
2023-05-02T02:24:10.247Z,48.81
2023-05-02T02:25:15.131Z,48.83
2023-05-02T02:26:20.970Z,48.77
2023-05-02T02:27:23.211Z,48.99
2023-05-02T02:28:25.120Z,49.02
2023-05-02T02:29:27.270Z,49.66
2023-05-02T02:30:29.174Z,49.51
2023-05-02T02:31:33.250Z,49.68
2023-05-02T02:32:35.801Z,49.55
2023-05-02T02:33:38.211Z,49.72
2023-05-02T02:34:40.141Z,49.84
2023-05-02T02:35:48.346Z,49.84
2023-05-02T02:37:16.089Z,50.27
2023-05-02T02:38:31.797Z,50.47
2023-05-02T02:39:44.253Z,50.17
2023-05-02T02:40:55.043Z,50.10
2023-05-02T02:42:04.168Z,50.48
2023-05-02T02:43:11.934Z,50.67
2023-05-02T02:44:28.478Z,50.60
2023-05-02T02:45:38.359Z,50.36
2023-05-02T02:46:51.918Z,50.14
2023-05-02T02:48:30.645Z,50.28
2023-05-02T02:49:40.017Z,50.28
2023-05-02T02:51:06.995Z,50.50
2023-05-02T02:52:18.474Z,50.71
2023-05-02T02:53:26.567Z,50.84
2023-05-02T02:54:51.819Z,50.74
2023-05-02T02:56:00.823Z,51.00
2023-05-02T02:57:23.114Z,51.08
2023-05-02T02:58:27.760Z,51.00
2023-05-02T02:59:35.902Z,50.97
2023-05-02T03:00:38.435Z,51.13
2023-05-02T03:01:44.060Z,51.21
2023-05-02T03:02:48.196Z,51.41
2023-05-02T03:03:52.052Z,51.13
2023-05-02T03:04:56.210Z,51.36
2023-05-02T03:05:59.289Z,51.44
2023-05-02T03:07:02.384Z,51.22
2023-05-02T03:08:04.817Z,51.48
2023-05-02T03:09:07.343Z,51.56
2023-05-02T03:10:09.419Z,51.34
2023-05-02T03:11:12.520Z,51.32
2023-05-02T03:12:14.938Z,51.09
2023-05-02T03:13:17.130Z,50.98
2023-05-02T03:14:19.833Z,51.33
2023-05-02T03:15:30.867Z,51.36
2023-05-02T03:16:43.729Z,51.58
2023-05-02T03:17:46.652Z,51.57
2023-05-02T03:18:48.561Z,51.34
2023-05-02T03:19:50.476Z,51.67
2023-05-02T03:20:52.755Z,51.84
2023-05-02T03:21:55.401Z,51.58
2023-05-02T03:22:57.573Z,51.64
2023-05-02T03:24:00.898Z,51.53
2023-05-02T03:25:03.610Z,51.26
2023-05-02T03:26:06.204Z,51.25
2023-05-02T03:27:08.573Z,51.46
2023-05-02T03:28:11.142Z,51.49
2023-05-02T03:29:14.886Z,51.55
2023-05-02T03:30:16.860Z,51.83
2023-05-02T03:31:18.745Z,52.02
2023-05-02T03:32:20.866Z,52.05
2023-05-02T03:33:23.729Z,52.21
2023-05-02T03:34:25.821Z,52.18
2023-05-02T03:35:27.830Z,52.47
2023-05-02T03:36:29.702Z,52.17
2023-05-02T03:37:31.640Z,52.07
2023-05-02T03:38:34.294Z,52.35
2023-05-02T03:39:37.215Z,52.33
2023-05-02T03:40:39.328Z,51.80
2023-05-02T03:41:43.943Z,52.06
2023-05-02T03:42:47.047Z,52.08
2023-05-02T03:43:51.810Z,52.52
2023-05-02T03:44:54.287Z,52.38
2023-05-02T03:45:56.292Z,52.37
2023-05-02T03:46:58.324Z,52.13
2023-05-02T03:48:00.985Z,51.78
2023-05-02T03:49:03.276Z,51.89
2023-05-02T03:50:05.550Z,51.93
2023-05-02T03:51:10.653Z,52.00
2023-05-02T03:52:13.162Z,52.17
2023-05-02T03:53:16.208Z,52.01
2023-05-02T03:54:19.462Z,52.00
2023-05-02T03:55:22.491Z,52.00
2023-05-02T03:56:24.470Z,52.07
2023-05-02T03:57:30.404Z,52.22
2023-05-02T03:58:34.470Z,52.06
2023-05-02T03:59:37.324Z,51.85
2023-05-02T04:00:40.169Z,52.05
2023-05-02T04:01:42.765Z,52.26
2023-05-02T04:02:45.472Z,52.13
2023-05-02T04:03:48.150Z,52.67
2023-05-02T04:04:50.638Z,52.45
2023-05-02T04:05:53.435Z,52.38
2023-05-02T04:06:55.711Z,52.20
2023-05-02T04:07:57.691Z,52.26
2023-05-02T04:09:00.138Z,52.49
2023-05-02T04:10:03.107Z,52.30
2023-05-02T04:11:06.436Z,52.50
2023-05-02T04:12:09.725Z,52.67
2023-05-02T04:13:13.087Z,52.76
2023-05-02T04:14:15.311Z,52.67
2023-05-02T04:15:18.608Z,52.64
2023-05-02T04:16:21.497Z,52.46
2023-05-02T04:17:23.856Z,52.09
2023-05-02T04:18:26.776Z,52.22
2023-05-02T04:19:28.720Z,52.39
2023-05-02T04:20:30.741Z,52.58
2023-05-02T04:21:32.781Z,52.76
2023-05-02T04:22:35.172Z,52.57
2023-05-02T04:23:37.168Z,52.48
2023-05-02T04:24:39.236Z,53.05
2023-05-02T04:25:41.183Z,52.98
2023-05-02T04:26:43.045Z,52.86
2023-05-02T04:27:45.459Z,53.82
2023-05-02T04:28:47.560Z,53.29
2023-05-02T04:29:51.346Z,53.17
2023-05-02T04:30:53.936Z,54.47
2023-05-02T04:31:56.344Z,53.49
2023-05-02T04:32:59.247Z,53.34
2023-05-02T04:34:04.297Z,53.29
2023-05-02T04:35:08.392Z,53.06
2023-05-02T04:36:11.634Z,53.09
2023-05-02T04:37:16.178Z,53.12
2023-05-02T04:38:19.008Z,52.49
2023-05-02T04:39:21.645Z,52.20
2023-05-02T04:40:24.320Z,52.21
2023-05-02T04:41:28.016Z,52.23
2023-05-02T04:42:30.731Z,52.32
2023-05-02T04:43:33.295Z,52.13
2023-05-02T04:44:35.588Z,52.45
2023-05-02T04:45:37.768Z,52.27
2023-05-02T04:46:40.785Z,51.97
2023-05-02T04:47:42.689Z,51.71
2023-05-02T04:48:44.909Z,52.14
2023-05-02T04:49:46.740Z,51.67
2023-05-02T04:50:49.747Z,51.75
2023-05-02T04:51:52.758Z,51.74
2023-05-02T04:52:55.860Z,51.40
2023-05-02T04:53:58.263Z,51.50
2023-05-02T04:55:00.468Z,51.59
2023-05-02T04:56:03.324Z,51.39
2023-05-02T04:57:07.975Z,51.36
2023-05-02T04:58:12.711Z,50.99
2023-05-02T04:59:15.202Z,50.62
2023-05-02T05:00:17.623Z,50.04
2023-05-02T05:01:19.671Z,51.54
2023-05-02T05:02:23.188Z,50.56
2023-05-02T05:03:25.527Z,50.46
2023-05-02T05:04:27.922Z,50.16
2023-05-02T05:05:30.048Z,50.19
2023-05-02T05:06:32.077Z,49.94
2023-05-02T05:07:34.836Z,50.02
2023-05-02T05:08:36.902Z,50.15
2023-05-02T05:09:39.180Z,50.52
2023-05-02T05:10:41.496Z,50.76
2023-05-02T05:11:46.151Z,50.05
2023-05-02T05:12:49.427Z,50.37
2023-05-02T05:13:51.665Z,49.59
2023-05-02T05:14:54.244Z,49.66
2023-05-02T05:15:57.036Z,49.50
2023-05-02T05:16:59.524Z,49.73
2023-05-02T05:18:02.294Z,49.96
2023-05-02T05:19:05.106Z,49.97
2023-05-02T05:20:09.577Z,49.69
2023-05-02T05:21:12.303Z,50.09
2023-05-02T05:22:15.566Z,49.78
2023-05-02T05:23:18.035Z,49.87
2023-05-02T05:24:19.929Z,49.71
2023-05-02T05:25:22.263Z,50.54
2023-05-02T05:26:25.238Z,50.02
2023-05-02T05:27:27.427Z,50.54
2023-05-02T05:28:29.572Z,50.42
2023-05-02T05:29:33.047Z,50.17
2023-05-02T05:30:35.232Z,50.16
2023-05-02T05:31:38.365Z,49.90
2023-05-02T05:32:40.701Z,50.67
2023-05-02T05:33:44.137Z,50.31
2023-05-02T05:34:46.216Z,50.75
2023-05-02T05:35:48.757Z,50.32
2023-05-02T05:36:50.800Z,50.49
2023-05-02T05:37:53.894Z,50.31
2023-05-02T05:38:55.985Z,50.05
2023-05-02T05:39:57.998Z,50.57
2023-05-02T05:41:01.342Z,50.31
2023-05-02T05:42:03.688Z,50.34
2023-05-02T05:43:06.685Z,50.78
2023-05-02T05:44:08.975Z,50.69
2023-05-02T05:45:12.388Z,50.17
2023-05-02T05:46:14.683Z,49.64
2023-05-02T05:47:22.042Z,50.22
2023-05-02T05:48:24.373Z,49.12
2023-05-02T05:49:26.399Z,49.51
2023-05-02T05:50:28.323Z,49.98
2023-05-02T05:51:31.512Z,49.62
2023-05-02T05:52:33.796Z,49.32
2023-05-02T05:53:36.014Z,48.70
2023-05-02T05:54:38.308Z,49.54
2023-05-02T05:55:42.294Z,50.26
2023-05-02T05:56:45.523Z,50.49
2023-05-02T05:57:47.470Z,50.61
2023-05-02T05:58:49.637Z,50.32
2023-05-02T05:59:52.111Z,50.31
2023-05-02T06:00:54.960Z,50.53
2023-05-02T06:01:57.827Z,50.12
2023-05-02T06:03:00.202Z,50.48
2023-05-02T06:04:03.174Z,50.82
2023-05-02T06:05:05.735Z,51.34
2023-05-02T06:06:07.711Z,50.78
2023-05-02T06:07:09.924Z,50.62
2023-05-02T06:08:11.859Z,50.39
2023-05-02T06:09:14.236Z,51.28
2023-05-02T06:10:16.191Z,51.01
2023-05-02T06:11:19.328Z,51.12
2023-05-02T06:12:21.624Z,50.85
2023-05-02T06:13:23.772Z,50.30
2023-05-02T06:14:25.833Z,50.56
2023-05-02T06:15:28.254Z,50.47
2023-05-02T06:16:30.175Z,49.89
2023-05-02T06:17:32.423Z,50.23
2023-05-02T06:18:34.379Z,51.83
2023-05-02T06:19:36.313Z,49.71
2023-05-02T06:20:38.214Z,49.89
2023-05-02T06:21:40.099Z,49.50
2023-05-02T06:22:42.427Z,49.72
2023-05-02T06:23:44.434Z,49.26
2023-05-02T06:24:46.334Z,49.72
2023-05-02T06:25:48.145Z,49.83
2023-05-02T06:26:51.676Z,50.42
2023-05-02T06:27:53.943Z,51.16
2023-05-02T06:28:55.914Z,51.27
2023-05-02T06:29:58.196Z,50.54
2023-05-02T06:31:01.797Z,50.95
2023-05-02T06:32:04.260Z,49.44
2023-05-02T06:33:06.588Z,49.98
2023-05-02T06:34:08.521Z,49.57
2023-05-02T06:35:11.676Z,49.32
2023-05-02T06:36:14.697Z,49.35
2023-05-02T06:37:16.577Z,48.82
2023-05-02T06:38:19.251Z,48.61
2023-05-02T06:39:21.085Z,48.25
2023-05-02T06:40:23.007Z,48.53
2023-05-02T06:41:24.860Z,47.27
2023-05-02T06:42:26.707Z,47.51
2023-05-02T06:43:28.855Z,48.66
2023-05-02T06:44:30.876Z,47.87
2023-05-02T06:45:32.738Z,47.94
2023-05-02T06:46:34.620Z,47.97
2023-05-02T06:47:36.570Z,48.08
2023-05-02T06:48:38.753Z,48.01
2023-05-02T06:49:40.713Z,48.25
2023-05-02T06:50:42.758Z,47.64
2023-05-02T06:51:44.658Z,47.66
2023-05-02T06:52:46.472Z,48.33
2023-05-02T06:53:48.638Z,48.51
2023-05-02T06:54:50.661Z,47.57
2023-05-02T06:55:53.506Z,48.26
2023-05-02T06:56:55.478Z,48.79
2023-05-02T06:57:57.441Z,48.12
2023-05-02T06:58:59.660Z,46.80
2023-05-02T07:00:01.835Z,46.45
2023-05-02T07:01:04.111Z,46.46
2023-05-02T07:02:06.918Z,46.52
2023-05-02T07:03:11.066Z,46.57
2023-05-02T07:04:13.387Z,46.50
2023-05-02T07:05:15.953Z,45.95
2023-05-02T07:06:18.252Z,46.62
2023-05-02T07:07:22.073Z,45.85
2023-05-02T07:08:24.147Z,44.87
2023-05-02T07:09:26.364Z,44.87
2023-05-02T07:10:28.290Z,44.73
2023-05-02T07:11:30.154Z,44.40
2023-05-02T07:12:31.996Z,43.59
2023-05-02T07:13:33.819Z,43.42
2023-05-02T07:14:35.935Z,43.95
2023-05-02T07:15:37.805Z,44.31
2023-05-02T07:16:39.751Z,44.82
2023-05-02T07:17:41.881Z,43.81
2023-05-02T07:18:45.741Z,43.23
2023-05-02T07:19:47.877Z,43.24
2023-05-02T07:20:49.942Z,43.34
2023-05-02T07:21:51.824Z,44.41
2023-05-02T07:22:54.064Z,44.71
2023-05-02T07:23:57.628Z,44.46
2023-05-02T07:25:02.155Z,44.39
2023-05-02T07:26:06.396Z,43.99
2023-05-02T07:27:12.379Z,44.46
2023-05-02T07:28:14.393Z,43.94
2023-05-02T07:29:16.369Z,43.58
2023-05-02T07:30:18.514Z,43.47
2023-05-02T07:31:20.757Z,43.56
2023-05-02T07:32:22.765Z,43.15
2023-05-02T07:33:24.778Z,43.15
2023-05-02T07:34:26.734Z,42.88
2023-05-02T07:35:28.961Z,42.66
2023-05-02T07:36:31.396Z,41.96
2023-05-02T07:37:37.510Z,41.99
2023-05-02T07:38:39.745Z,41.53
2023-05-02T07:39:41.600Z,41.62
2023-05-02T07:40:43.797Z,40.86
2023-05-02T07:41:46.061Z,40.37
2023-05-02T07:42:48.959Z,40.44
2023-05-02T07:43:50.889Z,41.35
2023-05-02T07:44:52.704Z,41.20
2023-05-02T07:45:55.233Z,41.08
2023-05-02T07:46:57.128Z,41.85
2023-05-02T07:47:59.063Z,42.29
2023-05-02T07:49:01.074Z,42.46
2023-05-02T07:50:06.446Z,41.35
2023-05-02T07:51:10.406Z,41.89
2023-05-02T07:52:12.261Z,43.28
2023-05-02T07:53:14.156Z,43.42
2023-05-02T07:54:20.200Z,43.91
2023-05-02T07:55:22.276Z,43.73
2023-05-02T07:56:25.448Z,43.38
2023-05-02T07:57:27.297Z,43.80
2023-05-02T07:58:29.352Z,43.83
2023-05-02T07:59:32.102Z,43.53
2023-05-02T08:00:34.168Z,43.26
2023-05-02T08:01:36.520Z,43.33
2023-05-02T08:02:38.496Z,43.76
2023-05-02T08:03:40.520Z,43.58
2023-05-02T08:04:42.465Z,43.67
2023-05-02T08:05:44.502Z,43.33
2023-05-02T08:06:46.728Z,43.04
2023-05-02T08:07:49.179Z,43.52
2023-05-02T08:08:50.980Z,43.57
2023-05-02T08:09:52.907Z,41.87
2023-05-02T08:10:54.808Z,42.99
2023-05-02T08:11:57.646Z,42.63
2023-05-02T08:12:59.717Z,42.36
2023-05-02T08:14:01.834Z,42.39
2023-05-02T08:15:12.899Z,41.68
2023-05-02T08:16:14.759Z,41.48
2023-05-02T08:17:16.929Z,42.13
2023-05-02T08:18:18.778Z,41.73
2023-05-02T08:19:20.693Z,40.89
2023-05-02T08:20:23.042Z,39.74
2023-05-02T08:21:24.955Z,39.80
2023-05-02T08:22:27.134Z,39.41
2023-05-02T08:23:29.155Z,40.43
2023-05-02T08:24:31.501Z,40.33
2023-05-02T08:25:33.426Z,40.21
2023-05-02T08:26:35.514Z,40.68
2023-05-02T08:27:37.637Z,40.31
2023-05-02T08:28:39.553Z,40.38
2023-05-02T08:29:41.378Z,39.82
2023-05-02T08:30:45.266Z,40.28
2023-05-02T08:31:47.209Z,39.86
2023-05-02T08:32:49.426Z,39.09
2023-05-02T08:33:51.679Z,38.49
2023-05-02T08:34:57.155Z,38.38
2023-05-02T08:35:59.054Z,38.92
2023-05-02T08:37:00.949Z,39.41
2023-05-02T08:38:03.285Z,39.89
2023-05-02T08:39:05.351Z,39.65
2023-05-02T08:40:12.327Z,40.50
2023-05-02T08:41:18.624Z,40.05
2023-05-02T08:42:21.329Z,40.64
2023-05-02T08:44:25.577Z,39.99
2023-05-02T08:45:27.488Z,39.63
2023-05-02T08:46:31.138Z,39.41
2023-05-02T08:47:33.353Z,38.86
2023-05-02T08:48:41.333Z,39.49
2023-05-02T08:49:44.339Z,40.58
2023-05-02T08:50:48.404Z,39.64
2023-05-02T08:51:52.674Z,39.86
2023-05-02T08:52:56.169Z,39.32
2023-05-02T08:53:59.969Z,38.80
2023-05-02T08:55:04.063Z,38.78
2023-05-02T08:56:10.802Z,39.46
2023-05-02T08:57:12.669Z,39.64
2023-05-02T08:58:15.473Z,39.75
2023-05-02T08:59:18.787Z,39.93
2023-05-02T09:00:21.045Z,39.47
2023-05-02T09:01:24.062Z,39.33
2023-05-02T09:02:52.345Z,40.06
2023-05-02T09:03:55.994Z,39.14
2023-05-02T09:05:04.217Z,38.77
2023-05-02T09:06:15.349Z,39.33
2023-05-02T09:07:17.331Z,39.64
2023-05-02T09:08:22.738Z,39.86
2023-05-02T09:09:25.118Z,40.00
2023-05-02T09:10:28.995Z,40.88
2023-05-02T09:11:31.587Z,41.22
2023-05-02T09:12:33.501Z,41.42
2023-05-02T09:13:40.377Z,41.02
2023-05-02T09:14:44.927Z,40.53
2023-05-02T09:16:01.128Z,40.86
2023-05-02T09:17:03.352Z,41.05
2023-05-02T09:18:05.512Z,39.91
2023-05-02T09:19:07.471Z,39.41
2023-05-02T09:20:12.794Z,39.80
2023-05-02T09:21:22.880Z,40.71
2023-05-02T09:22:25.185Z,40.81
2023-05-02T09:23:44.857Z,41.31
2023-05-02T09:24:54.823Z,41.31
2023-05-02T09:25:56.835Z,40.79
2023-05-02T09:27:05.816Z,41.03
2023-05-02T09:28:07.696Z,42.00
2023-05-02T09:29:09.583Z,40.92
2023-05-02T09:30:38.029Z,39.80
2023-05-02T09:32:48.548Z,39.42
2023-05-02T09:33:50.684Z,38.54
2023-05-02T09:35:06.044Z,37.44
2023-05-02T09:36:14.511Z,37.32
2023-05-02T09:37:34.861Z,36.98
2023-05-02T09:38:38.076Z,36.46
2023-05-02T09:39:39.904Z,37.05
2023-05-02T09:40:54.880Z,37.25
2023-05-02T09:41:58.397Z,36.88
2023-05-02T09:43:00.297Z,36.74
2023-05-02T09:44:02.442Z,36.41
2023-05-02T09:45:04.688Z,36.53
2023-05-02T09:46:11.692Z,36.52
2023-05-02T09:47:26.518Z,36.83
2023-05-02T09:48:29.861Z,37.13
2023-05-02T09:49:58.169Z,37.39
2023-05-02T09:51:01.832Z,37.16
2023-05-02T09:52:14.612Z,36.46
2023-05-02T09:53:16.476Z,37.06
2023-05-02T09:54:37.922Z,36.90
2023-05-02T09:55:40.110Z,37.54
2023-05-02T09:56:57.681Z,38.04
2023-05-02T09:58:01.126Z,37.46
2023-05-02T09:59:16.365Z,37.52
2023-05-02T10:00:19.841Z,36.98
2023-05-02T10:01:22.496Z,37.15
2023-05-02T10:02:25.743Z,37.80
2023-05-02T10:03:29.455Z,37.13
2023-05-02T10:04:33.607Z,36.41
2023-05-02T10:05:39.838Z,37.03
2023-05-02T10:06:46.155Z,36.85
2023-05-02T10:07:48.739Z,36.47
2023-05-02T10:08:50.841Z,36.08
2023-05-02T10:09:55.471Z,35.95
2023-05-02T10:10:59.258Z,35.87
2023-05-02T10:12:08.101Z,36.01
2023-05-02T10:13:10.558Z,36.16
2023-05-02T10:14:13.868Z,35.71
2023-05-02T10:15:18.224Z,35.69
2023-05-02T10:16:27.657Z,36.61
2023-05-02T10:17:39.724Z,37.31
2023-05-02T10:18:58.184Z,36.94
2023-05-02T10:20:07.867Z,36.97
2023-05-02T10:21:12.729Z,37.02
2023-05-02T10:22:19.281Z,36.80
2023-05-02T10:23:22.388Z,37.36
2023-05-02T10:24:25.183Z,37.55
2023-05-02T10:25:28.032Z,37.49
2023-05-02T10:26:29.961Z,37.19
2023-05-02T10:27:32.916Z,37.50
2023-05-02T10:28:36.410Z,38.02
2023-05-02T10:29:41.126Z,38.04
2023-05-02T10:30:44.235Z,37.43
2023-05-02T10:31:47.288Z,37.36
2023-05-02T10:32:51.595Z,37.16
2023-05-02T10:33:57.138Z,36.68
2023-05-02T10:35:03.812Z,36.74
2023-05-02T10:36:08.759Z,37.00
2023-05-02T10:37:11.740Z,36.13
2023-05-02T10:38:21.681Z,36.08
2023-05-02T10:39:25.251Z,36.73
2023-05-02T10:40:27.407Z,37.16
2023-05-02T10:41:34.981Z,37.15
2023-05-02T10:42:43.622Z,35.23
2023-05-02T10:43:49.732Z,35.68
2023-05-02T10:44:51.996Z,34.52
2023-05-02T10:45:55.061Z,34.50
2023-05-02T10:46:58.159Z,34.73
2023-05-02T10:48:26.803Z,35.29
2023-05-02T10:49:29.879Z,35.20
2023-05-02T10:50:47.294Z,34.61
2023-05-02T10:51:49.184Z,35.01
2023-05-02T10:52:51.149Z,35.42
2023-05-02T10:53:53.004Z,35.55
2023-05-02T10:55:13.493Z,34.82
2023-05-02T10:56:21.710Z,35.49
2023-05-02T10:57:23.652Z,35.89
2023-05-02T10:58:25.567Z,36.65
2023-05-02T10:59:39.117Z,36.52
2023-05-02T11:00:41.166Z,35.78
2023-05-02T11:01:44.495Z,35.93
2023-05-02T11:02:46.420Z,35.80
2023-05-02T11:04:06.240Z,35.49
2023-05-02T11:05:08.327Z,35.45
2023-05-02T11:06:10.290Z,35.05
2023-05-02T11:07:19.364Z,35.22
2023-05-02T11:08:23.162Z,36.01
2023-05-02T11:09:25.199Z,35.61
2023-05-02T11:10:27.780Z,35.71
2023-05-02T11:11:43.801Z,36.21
2023-05-02T11:13:06.444Z,35.75
2023-05-02T11:14:09.249Z,35.07
2023-05-02T11:15:13.516Z,35.12
2023-05-02T11:16:15.409Z,34.82
2023-05-02T11:17:17.561Z,35.03
2023-05-02T11:18:19.707Z,34.79
2023-05-02T11:19:21.593Z,35.25
2023-05-02T11:20:23.581Z,35.02
2023-05-02T11:21:28.760Z,35.62
2023-05-02T11:22:34.468Z,35.51
2023-05-02T11:23:37.916Z,35.22
2023-05-02T11:24:44.723Z,35.23
2023-05-02T11:25:54.627Z,35.29
2023-05-02T11:27:31.464Z,34.51
2023-05-02T11:28:48.478Z,34.49
2023-05-02T11:30:07.619Z,36.38
2023-05-02T11:31:30.177Z,35.98
2023-05-02T11:32:44.545Z,36.22
2023-05-02T11:33:56.442Z,35.76
2023-05-02T11:34:59.074Z,35.74
2023-05-02T11:36:01.297Z,35.73
2023-05-02T11:37:11.970Z,36.24
2023-05-02T11:38:15.828Z,35.92
2023-05-02T11:39:24.147Z,36.26
2023-05-02T11:40:27.956Z,36.09
2023-05-02T11:41:40.361Z,35.72
2023-05-02T11:42:42.339Z,36.08
2023-05-02T11:43:44.180Z,35.31
2023-05-02T11:44:59.462Z,35.12
2023-05-02T11:46:02.599Z,34.85
2023-05-02T11:47:04.789Z,34.75
2023-05-02T11:48:07.627Z,34.79
2023-05-02T11:49:11.049Z,35.68
2023-05-02T11:50:14.893Z,35.52
2023-05-02T11:51:23.389Z,34.98
2023-05-02T11:52:25.582Z,35.01
2023-05-02T11:53:29.498Z,33.55
2023-05-02T11:54:31.479Z,33.75
2023-05-02T11:55:33.364Z,33.30
2023-05-02T11:56:35.776Z,33.17
2023-05-02T11:57:38.846Z,33.51
2023-05-02T11:58:40.848Z,32.27
2023-05-02T11:59:56.463Z,32.00
2023-05-02T12:00:59.599Z,32.28
2023-05-02T12:02:01.777Z,32.40
2023-05-02T12:03:04.312Z,32.42
2023-05-02T12:04:08.018Z,32.67
2023-05-02T12:05:12.446Z,32.81
2023-05-02T12:06:21.251Z,32.29
2023-05-02T12:07:40.587Z,32.94
2023-05-02T12:08:44.101Z,33.10
2023-05-02T12:09:53.401Z,33.19
2023-05-02T12:10:56.582Z,32.82
2023-05-02T12:11:58.530Z,32.94
2023-05-02T12:13:05.916Z,32.73
2023-05-02T12:14:07.974Z,33.17
2023-05-02T12:15:11.950Z,33.50
2023-05-02T12:16:14.337Z,33.50
2023-05-02T12:17:16.927Z,32.95
2023-05-02T12:18:22.074Z,32.95
2023-05-02T12:19:24.354Z,33.51
2023-05-02T12:20:26.473Z,33.08
2023-05-02T12:21:35.854Z,32.49
2023-05-02T12:22:38.476Z,32.90
2023-05-02T12:23:42.327Z,33.00
2023-05-02T12:24:44.591Z,33.40
2023-05-02T12:25:46.460Z,33.71
2023-05-02T12:26:48.827Z,33.08
2023-05-02T12:28:01.577Z,33.00
2023-05-02T12:29:06.595Z,32.96
2023-05-02T12:30:08.929Z,32.92
2023-05-02T12:31:12.022Z,33.27
2023-05-02T12:32:16.883Z,33.72
2023-05-02T12:33:19.462Z,33.94
2023-05-02T12:34:32.857Z,34.22
2023-05-02T12:35:36.067Z,34.45
2023-05-02T12:36:44.485Z,34.85
2023-05-02T12:37:47.437Z,34.52
2023-05-02T12:38:52.981Z,34.77
2023-05-02T12:39:56.870Z,34.69
2023-05-02T12:40:58.836Z,34.34
2023-05-02T12:42:00.914Z,34.54
2023-05-02T12:43:05.711Z,34.66
2023-05-02T12:44:07.958Z,34.34
2023-05-02T12:45:19.209Z,34.47
2023-05-02T12:46:21.432Z,34.08
2023-05-02T12:47:24.198Z,34.06
2023-05-02T12:48:28.862Z,33.82
2023-05-02T12:49:31.204Z,34.33
2023-05-02T12:50:38.199Z,33.92
2023-05-02T12:51:40.789Z,33.78
2023-05-02T12:52:47.617Z,33.69
2023-05-02T12:53:49.560Z,32.74
2023-05-02T12:54:52.032Z,33.98
2023-05-02T12:56:03.202Z,34.05
2023-05-02T12:57:05.604Z,34.27
2023-05-02T12:58:09.864Z,34.27
2023-05-02T12:59:26.455Z,34.30
2023-05-02T13:00:29.004Z,33.77
2023-05-02T13:01:33.879Z,34.13
2023-05-02T13:02:35.835Z,34.35
2023-05-02T13:03:38.107Z,34.19
2023-05-02T13:04:42.168Z,34.11
2023-05-02T13:05:44.035Z,33.94
2023-05-02T13:06:47.240Z,33.61
2023-05-02T13:07:49.426Z,33.02
2023-05-02T13:08:51.275Z,32.95
2023-05-02T13:09:53.103Z,32.79
2023-05-02T13:10:54.931Z,32.48
2023-05-02T13:11:58.960Z,32.78
2023-05-02T13:13:01.708Z,33.09
2023-05-02T13:14:05.748Z,33.39
2023-05-02T13:15:08.612Z,33.73
2023-05-02T13:16:10.902Z,33.57
2023-05-02T13:17:13.412Z,33.82
2023-05-02T13:18:15.401Z,34.02
2023-05-02T13:19:17.344Z,34.11
2023-05-02T13:20:19.539Z,33.95
2023-05-02T13:21:21.406Z,33.75
2023-05-02T13:22:23.932Z,33.75
2023-05-02T13:23:25.958Z,33.71
2023-05-02T13:24:27.990Z,33.18
2023-05-02T13:25:29.862Z,32.57
2023-05-02T13:26:32.337Z,32.60
2023-05-02T13:27:34.559Z,32.58
2023-05-02T13:28:37.716Z,32.66
2023-05-02T13:29:39.622Z,32.75
2023-05-02T13:30:41.624Z,32.74
2023-05-02T13:31:43.578Z,33.09
2023-05-02T13:32:45.850Z,33.30
2023-05-02T13:33:48.183Z,33.31
2023-05-02T13:34:50.152Z,33.23
2023-05-02T13:35:51.994Z,33.46
2023-05-02T13:36:53.900Z,33.83
2023-05-02T13:37:56.087Z,33.77
2023-05-02T13:38:57.965Z,33.61
2023-05-02T13:40:00.241Z,33.76
2023-05-02T13:41:02.369Z,33.94
2023-05-02T13:42:05.925Z,33.97
2023-05-02T13:43:08.584Z,34.19
2023-05-02T13:44:10.522Z,34.08
2023-05-02T13:45:12.587Z,34.20
2023-05-02T13:46:14.528Z,33.54
2023-05-02T13:47:16.750Z,34.11
2023-05-02T13:48:19.092Z,34.19
2023-05-02T13:49:21.188Z,34.60
2023-05-02T13:50:23.101Z,34.43
2023-05-02T13:51:24.949Z,34.56
2023-05-02T13:52:26.805Z,34.79
2023-05-02T13:53:29.195Z,35.08